createdAt,value
2022-08-05T00:02:52.124Z,100493.94
2022-08-05T00:07:59.985Z,100489.67
2022-08-05T00:13:04.673Z,100481.25
2022-08-05T00:18:07.880Z,100477.30
2022-08-05T00:23:12.958Z,100469.77
2022-08-05T00:28:21.153Z,100465.57
2022-08-05T00:34:53.876Z,100459.32
2022-08-05T00:38:56.781Z,100460.04
2022-08-05T00:44:03.039Z,100457.33
2022-08-05T00:49:06.450Z,100458.63
2022-08-05T00:54:12.219Z,100458.00
2022-08-05T00:59:15.328Z,100453.45
2022-08-05T01:04:20.361Z,100449.41
2022-08-05T01:09:33.212Z,100450.73
2022-08-05T01:14:49.160Z,100445.58
2022-08-05T01:20:01.366Z,100446.90
2022-08-05T01:25:39.924Z,100448.37
2022-08-05T01:30:53.935Z,100444.66
2022-08-05T01:35:59.808Z,100437.94
2022-08-05T01:41:05.061Z,100436.33
2022-08-05T01:46:41.234Z,100437.08
2022-08-05T01:51:35.953Z,100431.59
2022-08-05T01:58:29.498Z,100426.33
2022-08-05T02:02:06.899Z,100422.34
2022-08-05T02:07:21.614Z,100423.51
2022-08-05T02:12:51.037Z,100418.08
2022-08-05T02:18:31.263Z,100417.87
2022-08-05T02:23:22.959Z,100417.95
2022-08-05T02:28:32.123Z,100412.38
2022-08-05T02:33:42.197Z,100411.54
2022-08-05T02:38:53.623Z,100408.80
2022-08-05T02:44:02.276Z,100410.38
2022-08-05T02:49:11.291Z,100406.80
2022-08-05T02:54:36.483Z,100402.24
2022-08-05T02:59:48.073Z,100398.85
2022-08-05T03:04:55.903Z,100391.11
2022-08-05T03:09:59.623Z,100390.02
2022-08-05T03:15:04.062Z,100389.28
2022-08-05T03:20:10.647Z,100390.95
2022-08-05T03:25:33.847Z,100394.83
2022-08-05T03:30:42.380Z,100396.88
2022-08-05T03:35:46.076Z,100395.92
2022-08-05T03:40:49.765Z,100394.35
2022-08-05T03:45:57.755Z,100400.39
2022-08-05T03:52:50.258Z,100402.02
2022-08-05T03:56:37.209Z,100405.52
2022-08-05T04:01:46.609Z,100403.41
2022-08-05T04:06:51.858Z,100400.16
2022-08-05T04:11:57.143Z,100402.25
2022-08-05T04:17:02.939Z,100403.39
2022-08-05T04:22:11.704Z,100405.19
2022-08-05T04:27:15.609Z,100401.54
2022-08-05T04:32:31.282Z,100405.39
2022-08-05T04:38:01.004Z,100408.70
2022-08-05T04:42:59.994Z,100407.98
2022-08-05T04:48:16.586Z,100405.90
2022-08-05T04:53:33.618Z,100399.95
2022-08-05T04:58:38.650Z,100398.57
2022-08-05T05:03:42.816Z,100399.27
2022-08-05T05:08:46.093Z,100399.59
2022-08-05T05:13:55.394Z,100406.24
2022-08-05T05:19:18.608Z,100411.66
2022-08-05T05:24:22.135Z,100407.27
2022-08-05T05:30:03.917Z,100405.56
2022-08-05T05:34:54.461Z,100407.51
2022-08-05T05:39:58.085Z,100408.47
2022-08-05T05:45:01.495Z,100409.10
2022-08-05T05:50:08.777Z,100408.64
2022-08-05T05:55:19.584Z,100405.42
2022-08-05T06:00:27.726Z,100409.23
2022-08-05T06:05:34.911Z,100415.73
2022-08-05T06:10:44.243Z,100417.70
2022-08-05T06:16:29.922Z,100416.17
2022-08-05T06:21:19.153Z,100404.71
2022-08-05T06:26:24.944Z,100403.36
2022-08-05T06:31:30.498Z,100402.52
2022-08-05T06:36:53.421Z,100403.08
2022-08-05T06:42:01.574Z,100400.89
2022-08-05T06:47:10.359Z,100396.05
2022-08-05T06:52:37.276Z,100398.46
2022-08-05T06:58:02.677Z,100395.20
2022-08-05T07:03:04.889Z,100391.05
2022-08-05T07:08:12.915Z,100393.86
2022-08-05T07:13:59.558Z,100399.13
2022-08-05T07:18:58.678Z,100394.61
2022-08-05T07:24:02.785Z,100392.27
2022-08-05T07:29:06.500Z,100390.02
2022-08-05T07:34:13.887Z,100387.36
2022-08-05T07:40:03.706Z,100383.36
2022-08-05T07:44:40.396Z,100378.33
2022-08-05T07:49:54.647Z,100373.42
2022-08-05T07:54:57.973Z,100372.85
2022-08-05T08:00:01.386Z,100380.05
2022-08-05T08:05:05.706Z,100381.95
2022-08-05T08:10:09.849Z,100382.64
2022-08-05T08:15:15.093Z,100375.89
2022-08-05T08:20:43.889Z,100372.48
2022-08-05T08:26:00.260Z,100372.45
2022-08-05T08:31:08.969Z,100370.29
2022-08-05T08:36:37.558Z,100370.11
2022-08-05T08:41:51.091Z,100364.71
2022-08-05T08:47:02.832Z,100364.95
2022-08-05T08:52:14.392Z,100362.78
2022-08-05T08:57:17.774Z,100350.94
2022-08-05T09:02:21.271Z,100345.80
2022-08-05T09:07:40.003Z,100341.19
2022-08-05T09:12:53.586Z,100329.50
2022-08-05T09:17:56.794Z,100328.06
2022-08-05T09:23:27.187Z,100331.30
2022-08-05T09:28:33.735Z,100324.83
2022-08-05T09:33:48.813Z,100324.12
2022-08-05T09:39:18.285Z,100322.08
2022-08-05T09:44:42.235Z,100318.16
2022-08-05T09:50:01.094Z,100309.39
2022-08-05T09:55:57.571Z,100302.55
2022-08-05T10:00:33.248Z,100294.29
2022-08-05T10:05:37.154Z,100290.50
2022-08-05T10:10:48.277Z,100287.57
2022-08-05T10:15:53.814Z,100273.48
2022-08-05T10:20:59.475Z,100262.88
2022-08-05T10:26:14.261Z,100260.45
2022-08-05T10:32:52.274Z,100252.77
2022-08-05T10:36:42.078Z,100246.48
2022-08-05T10:41:48.251Z,100239.50
2022-08-05T10:46:56.584Z,100239.08
2022-08-05T10:52:02.633Z,100233.13
2022-08-05T10:57:06.581Z,100236.88
2022-08-05T11:02:34.915Z,100229.69
2022-08-05T11:08:03.202Z,100223.80
2022-08-05T11:13:32.395Z,100218.55
2022-08-05T11:18:46.999Z,100213.79
2022-08-05T11:24:04.240Z,100211.98
2022-08-05T11:29:37.408Z,100203.83
2022-08-05T11:34:50.944Z,100209.38
2022-08-05T11:40:03.148Z,100194.14
2022-08-05T11:45:14.364Z,100184.36
2022-08-05T11:50:37.769Z,100180.37
2022-08-05T11:56:01.354Z,100179.89
2022-08-05T12:01:12.750Z,100186.80
2022-08-05T12:06:23.543Z,100186.21
2022-08-05T12:11:28.306Z,100184.86
2022-08-05T12:16:46.377Z,100184.82
2022-08-05T12:21:51.493Z,100184.64
2022-08-05T12:27:09.815Z,100173.45
2022-08-05T12:32:25.047Z,100161.65
2022-08-05T12:37:29.938Z,100157.98
2022-08-05T12:42:33.510Z,100158.97
2022-08-05T12:47:37.437Z,100160.12
2022-08-05T12:52:42.408Z,100159.24
2022-08-05T12:58:50.870Z,100158.89
2022-08-05T13:03:12.217Z,100157.45
2022-08-05T13:08:20.170Z,100153.19
2022-08-05T13:14:05.323Z,100147.51
2022-08-05T13:18:58.384Z,100144.61
2022-08-05T13:24:01.906Z,100133.76
2022-08-05T13:29:07.930Z,100133.48
2022-08-05T13:34:24.736Z,100130.05
2022-08-05T13:40:15.130Z,100124.31
2022-08-05T13:44:55.436Z,100113.15
2022-08-05T13:49:59.296Z,100107.66
2022-08-05T13:55:02.465Z,100098.77
2022-08-05T14:00:13.764Z,100093.86
2022-08-05T14:05:19.389Z,100091.33
2022-08-05T14:10:37.445Z,100087.23
2022-08-05T14:16:06.971Z,100088.68
2022-08-05T14:22:10.446Z,100088.06
2022-08-05T14:26:35.727Z,100084.27
2022-08-05T14:32:03.832Z,100080.91
2022-08-05T14:37:13.379Z,100077.63
2022-08-05T14:42:20.754Z,100079.26
2022-08-05T14:48:03.045Z,100081.17
2022-08-05T14:52:59.119Z,100082.20
2022-08-05T14:58:02.692Z,100076.52
2022-08-05T15:03:15.527Z,100077.08
2022-08-05T15:08:58.008Z,100071.63
2022-08-05T15:13:46.085Z,100078.31
2022-08-05T15:18:53.621Z,100076.15
2022-08-05T15:23:56.924Z,100074.50
2022-08-05T15:29:02.408Z,100069.55
2022-08-05T15:34:32.514Z,100064.83
2022-08-05T15:41:02.519Z,100064.02
2022-08-05T15:44:55.029Z,100061.64
2022-08-05T15:49:59.460Z,100065.75
2022-08-05T15:55:05.166Z,100063.30
2022-08-05T16:00:11.197Z,100061.58
2022-08-05T16:05:15.030Z,100065.98
2022-08-05T16:10:23.280Z,100074.29
2022-08-05T16:15:32.255Z,100070.20
2022-08-05T16:20:35.813Z,100067.89
2022-08-05T16:25:40.557Z,100062.73
2022-08-05T16:30:44.795Z,100065.73
2022-08-05T16:35:52.798Z,100060.16
2022-08-05T16:41:00.362Z,100053.52
2022-08-05T16:46:12.908Z,100049.27
2022-08-05T16:51:30.996Z,100046.25
2022-08-05T16:56:46.193Z,100043.42
2022-08-05T17:01:56.176Z,100038.17
2022-08-05T17:07:03.564Z,100030.51
2022-08-05T17:12:15.172Z,100033.32
2022-08-05T17:17:19.849Z,100024.73
2022-08-05T17:22:26.021Z,100026.38
2022-08-05T17:27:33.796Z,100028.81
2022-08-05T17:32:38.309Z,100027.95
2022-08-05T17:37:45.770Z,100023.85
2022-08-05T17:42:53.484Z,100026.30
2022-08-05T17:47:56.987Z,100025.30
2022-08-05T17:53:04.639Z,100026.03
2022-08-05T17:58:11.092Z,100023.51
2022-08-05T18:03:33.407Z,100034.17
2022-08-05T18:08:44.097Z,100034.11
2022-08-05T18:13:48.560Z,100038.70
2022-08-05T18:18:51.771Z,100044.77
2022-08-05T18:23:55.285Z,100042.65
2022-08-05T18:28:58.704Z,100049.04
2022-08-05T18:34:02.525Z,100050.02
2022-08-05T18:39:06.498Z,100050.81
2022-08-05T18:44:13.137Z,100049.06
2022-08-05T18:49:57.142Z,100057.98
2022-08-05T18:54:58.414Z,100058.27
2022-08-05T19:00:11.701Z,100049.96
2022-08-05T19:06:11.984Z,100052.66
2022-08-05T19:10:47.430Z,100043.86
2022-08-05T19:15:58.677Z,100044.09
2022-08-05T19:21:06.755Z,100042.62
2022-08-05T19:26:11.344Z,100043.75
2022-08-05T19:31:19.353Z,100037.88
2022-08-05T19:36:25.647Z,100042.70
2022-08-05T19:41:58.310Z,100042.33
2022-08-05T19:46:53.146Z,100039.74
2022-08-05T19:52:09.208Z,100043.23
2022-08-05T19:57:47.311Z,100046.45
2022-08-05T20:02:46.459Z,100038.84
2022-08-05T20:07:49.962Z,100041.16
2022-08-05T20:12:53.492Z,100036.88
2022-08-05T20:17:57.547Z,100037.50
2022-08-05T20:23:04.394Z,100036.48
2022-08-05T20:28:13.543Z,100038.67
2022-08-05T20:33:17.671Z,100045.35
2022-08-05T20:38:27.310Z,100058.70
2022-08-05T20:43:57.910Z,100062.11
2022-08-05T20:48:55.358Z,100057.59
2022-08-05T20:54:01.295Z,100060.25
2022-08-05T20:59:14.018Z,100062.23
2022-08-05T21:04:22.802Z,100060.10
2022-08-05T21:09:30.716Z,100062.63
2022-08-05T21:14:37.207Z,100065.05
2022-08-05T21:19:46.631Z,100065.63
2022-08-05T21:24:52.430Z,100066.96
2022-08-05T21:29:56.518Z,100070.65
2022-08-05T21:35:08.446Z,100074.17
2022-08-05T21:40:23.305Z,100077.49
2022-08-05T21:45:56.169Z,100121.35
2022-08-05T21:50:53.165Z,100110.83
2022-08-05T21:56:16.398Z,100125.80
2022-08-05T22:01:23.898Z,100127.92
2022-08-05T22:06:35.621Z,100137.16
2022-08-05T22:11:43.632Z,100142.30
2022-08-05T22:16:51.183Z,100128.33
2022-08-05T22:21:55.670Z,100130.98
2022-08-05T22:27:17.940Z,100153.79
2022-08-05T22:32:21.035Z,100176.92
2022-08-05T22:37:26.289Z,100173.20
2022-08-05T22:42:53.089Z,100174.18
2022-08-05T22:48:01.277Z,100170.80
2022-08-05T22:53:04.690Z,100164.00
2022-08-05T22:58:14.678Z,100185.23
2022-08-05T23:03:18.728Z,100198.59
2022-08-05T23:08:41.764Z,100176.31
2022-08-05T23:13:46.096Z,100174.23
2022-08-05T23:18:54.833Z,100171.80
2022-08-05T23:23:58.865Z,100171.14
2022-08-05T23:29:04.524Z,100167.58
2022-08-05T23:34:08.347Z,100205.80
2022-08-05T23:39:16.547Z,100224.84
2022-08-05T23:44:28.028Z,100231.91
2022-08-05T23:49:36.142Z,100235.80
2022-08-05T23:54:39.512Z,100235.03
